createdAt,value
2023-10-26T00:00:55.510Z,30.30
2023-10-26T00:06:09.938Z,30.80
2023-10-26T00:11:12.880Z,31.70
2023-10-26T00:16:15.885Z,31.50
2023-10-26T00:21:18.977Z,33.30
2023-10-26T00:26:22.123Z,32.30
2023-10-26T00:31:25.101Z,32.70
2023-10-26T00:36:28.227Z,33.60
2023-10-26T00:41:32.143Z,33.90
2023-10-26T00:46:36.531Z,35.00
2023-10-26T00:51:40.292Z,33.40
2023-10-26T00:56:43.291Z,34.60
2023-10-26T01:01:47.241Z,33.20
2023-10-26T01:06:50.139Z,32.90
2023-10-26T01:11:53.260Z,32.70
2023-10-26T01:16:56.347Z,33.00
2023-10-26T01:21:59.360Z,32.40
2023-10-26T01:27:02.502Z,31.10
2023-10-26T01:32:05.713Z,31.80
2023-10-26T01:37:08.694Z,32.10
2023-10-26T01:42:13.401Z,31.80
2023-10-26T01:47:18.553Z,30.50
2023-10-26T01:52:21.661Z,31.20
2023-10-26T01:57:24.519Z,29.70
2023-10-26T02:02:27.446Z,29.50
2023-10-26T02:07:30.464Z,30.30
2023-10-26T02:12:33.353Z,29.30
2023-10-26T02:17:36.252Z,30.90
2023-10-26T02:22:39.207Z,30.80
2023-10-26T02:27:42.184Z,29.30
2023-10-26T02:32:45.163Z,29.00
2023-10-26T02:37:49.149Z,28.80
2023-10-26T02:42:52.185Z,28.40
2023-10-26T02:47:55.138Z,27.70
2023-10-26T02:52:58.543Z,27.60
2023-10-26T02:58:01.467Z,25.20
2023-10-26T03:03:04.505Z,25.50
2023-10-26T03:08:09.729Z,25.10
2023-10-26T03:13:13.089Z,24.20
2023-10-26T03:18:16.329Z,23.10
2023-10-26T03:23:19.904Z,23.10
2023-10-26T03:28:22.965Z,21.40
2023-10-26T03:33:25.862Z,22.60
2023-10-26T03:38:28.955Z,21.90
2023-10-26T03:43:32.164Z,21.00
2023-10-26T03:48:36.637Z,22.00
2023-10-26T03:53:39.702Z,21.60
2023-10-26T03:58:42.625Z,20.20
2023-10-26T04:03:45.702Z,19.60
2023-10-26T04:08:50.003Z,19.90
2023-10-26T04:13:55.470Z,21.30
2023-10-26T04:18:58.417Z,19.60
2023-10-26T04:24:01.750Z,20.20
2023-10-26T04:29:08.113Z,21.20
2023-10-26T04:34:11.171Z,22.60
2023-10-26T04:39:14.768Z,21.90
2023-10-26T04:44:19.587Z,23.70
2023-10-26T04:49:22.499Z,25.60
2023-10-26T04:54:25.486Z,25.00
2023-10-26T04:59:28.349Z,23.00
2023-10-26T05:04:31.269Z,22.40
2023-10-26T05:09:34.279Z,24.00
2023-10-26T05:14:37.179Z,25.60
2023-10-26T05:19:40.171Z,27.10
2023-10-26T05:24:43.776Z,26.50
2023-10-26T05:29:46.939Z,26.00
2023-10-26T05:34:49.887Z,26.10
2023-10-26T05:39:52.754Z,26.30
2023-10-26T05:44:57.655Z,24.60
2023-10-26T05:50:01.328Z,25.00
2023-10-26T05:55:04.752Z,25.90
2023-10-26T06:00:11.006Z,25.50
2023-10-26T06:05:14.055Z,24.50
2023-10-26T06:10:17.062Z,23.40
2023-10-26T06:15:20.101Z,23.30
2023-10-26T06:20:28.973Z,24.10
2023-10-26T06:25:39.953Z,24.10
2023-10-26T06:30:43.001Z,27.30
2023-10-26T06:35:45.979Z,30.80
2023-10-26T06:40:49.052Z,35.40
2023-10-26T06:45:52.230Z,36.60
2023-10-26T06:51:03.067Z,37.20
2023-10-26T06:56:13.176Z,38.10
2023-10-26T07:01:19.785Z,36.80
2023-10-26T07:06:27.390Z,36.30
2023-10-26T07:11:33.462Z,32.50
2023-10-26T07:16:36.447Z,32.20
2023-10-26T07:21:39.358Z,33.90
2023-10-26T07:26:42.291Z,31.60
2023-10-26T07:31:46.895Z,32.00
2023-10-26T07:36:50.874Z,30.90
2023-10-26T07:42:07.424Z,31.20
2023-10-26T07:47:16.314Z,30.90
2023-10-26T07:52:19.205Z,29.90
2023-10-26T07:57:24.416Z,27.40
2023-10-26T08:02:27.699Z,28.00
2023-10-26T08:07:31.754Z,26.70
2023-10-26T08:12:34.779Z,25.80
2023-10-26T08:17:37.827Z,23.80
2023-10-26T08:22:42.935Z,23.00
2023-10-26T08:27:46.741Z,22.30
2023-10-26T08:32:51.430Z,21.10
2023-10-26T08:37:54.847Z,21.70
2023-10-26T08:42:57.816Z,20.90
2023-10-26T08:48:00.725Z,20.90
2023-10-26T08:53:04.026Z,20.70
2023-10-26T08:58:07.005Z,20.70
2023-10-26T09:03:10.921Z,19.80
2023-10-26T09:08:18.663Z,19.90
2023-10-26T09:13:29.437Z,20.30
2023-10-26T09:18:35.145Z,20.00
2023-10-26T09:23:39.149Z,19.90
2023-10-26T09:28:55.857Z,20.70
2023-10-26T09:34:11.246Z,20.70
2023-10-26T09:39:14.452Z,20.70
2023-10-26T09:44:17.357Z,20.80
2023-10-26T09:49:21.799Z,20.60
2023-10-26T09:54:37.862Z,21.30
2023-10-26T09:59:40.906Z,20.90
2023-10-26T10:04:44.945Z,21.10
2023-10-26T10:10:14.945Z,21.00
2023-10-26T10:15:41.888Z,21.70
2023-10-26T10:20:47.518Z,21.00
2023-10-26T10:25:52.767Z,20.30
2023-10-26T10:30:58.224Z,19.80
2023-10-26T10:36:03.783Z,19.00
2023-10-26T10:41:13.985Z,20.80
2023-10-26T10:46:27.558Z,19.00
2023-10-26T10:51:39.313Z,19.10
2023-10-26T10:56:49.784Z,18.40
2023-10-26T11:02:13.268Z,18.50
2023-10-26T11:07:16.297Z,18.50
2023-10-26T11:12:19.233Z,17.70
2023-10-26T11:17:26.358Z,17.40
2023-10-26T11:22:29.838Z,18.00
2023-10-26T11:27:38.746Z,17.40
2023-10-26T11:32:43.116Z,18.30
2023-10-26T11:37:56.725Z,18.70
2023-10-26T11:43:01.126Z,18.40
2023-10-26T11:48:09.681Z,18.70
2023-10-26T11:53:12.916Z,17.40
2023-10-26T11:58:16.070Z,18.30
2023-10-26T12:03:19.136Z,17.00
2023-10-26T12:08:22.318Z,16.90
2023-10-26T12:13:25.265Z,18.80
2023-10-26T12:18:28.623Z,21.60
2023-10-26T12:23:32.300Z,22.00
2023-10-26T12:28:35.378Z,19.40
2023-10-26T12:33:41.198Z,19.70
2023-10-26T12:38:45.342Z,20.30
2023-10-26T12:43:48.403Z,19.30
2023-10-26T12:48:51.405Z,20.10
2023-10-26T12:53:54.719Z,20.60
2023-10-26T12:58:58.876Z,21.10
2023-10-26T13:04:02.258Z,21.10
2023-10-26T13:09:05.685Z,21.30
2023-10-26T13:14:08.654Z,21.90
2023-10-26T13:19:11.740Z,20.90
2023-10-26T13:24:15.203Z,19.50
2023-10-26T13:29:18.361Z,17.60
2023-10-26T13:34:24.204Z,16.80
2023-10-26T13:39:27.245Z,16.40
2023-10-26T13:44:30.189Z,17.00
2023-10-26T13:49:33.192Z,15.10
2023-10-26T13:54:36.509Z,15.10
2023-10-26T13:59:40.610Z,15.00
2023-10-26T14:04:43.975Z,15.30
2023-10-26T14:09:47.966Z,15.00
2023-10-26T14:14:52.421Z,15.20
2023-10-26T14:19:55.678Z,15.00
2023-10-26T14:24:58.673Z,15.10
2023-10-26T14:30:01.829Z,15.30
2023-10-26T14:35:05.228Z,16.20
2023-10-26T14:40:09.516Z,15.80
2023-10-26T14:45:12.581Z,15.00
2023-10-26T14:50:15.605Z,15.30
2023-10-26T14:55:18.613Z,14.40
2023-10-26T15:00:21.583Z,14.80
2023-10-26T15:05:24.566Z,14.60
2023-10-26T15:10:30.834Z,14.50
2023-10-26T15:15:36.859Z,13.90
2023-10-26T15:20:40.885Z,13.90
2023-10-26T15:25:44.086Z,13.40
2023-10-26T15:30:47.240Z,12.70
2023-10-26T15:35:50.129Z,13.50
2023-10-26T15:41:03.824Z,12.60
2023-10-26T15:46:06.862Z,11.80
2023-10-26T15:51:10.018Z,10.80
2023-10-26T15:56:12.963Z,11.50
2023-10-26T16:01:17.017Z,12.20
2023-10-26T16:06:20.135Z,11.60
2023-10-26T16:11:23.175Z,11.90
2023-10-26T16:16:26.260Z,12.50
2023-10-26T16:21:29.353Z,12.00
2023-10-26T16:26:32.247Z,12.40
2023-10-26T16:31:36.177Z,12.80
2023-10-26T16:36:39.152Z,12.00
2023-10-26T16:41:43.218Z,11.50
2023-10-26T16:46:46.244Z,11.40
2023-10-26T16:51:49.368Z,10.40
2023-10-26T16:56:52.463Z,10.90
2023-10-26T17:01:55.398Z,12.80
2023-10-26T17:06:58.802Z,10.70
2023-10-26T17:12:01.941Z,9.80
2023-10-26T17:17:04.865Z,9.30
2023-10-26T17:22:07.829Z,10.40
2023-10-26T17:27:10.838Z,9.70
2023-10-26T17:32:14.654Z,9.40
2023-10-26T17:37:18.587Z,10.30
2023-10-26T17:42:21.584Z,10.20
2023-10-26T17:47:24.769Z,12.20
2023-10-26T17:52:27.760Z,17.10
2023-10-26T17:57:30.676Z,11.50
2023-10-26T18:02:33.613Z,10.00
2023-10-26T18:07:36.561Z,9.20
2023-10-26T18:12:39.564Z,10.50
2023-10-26T18:17:42.503Z,9.90
2023-10-26T18:22:46.234Z,10.40
2023-10-26T18:27:49.177Z,9.70
2023-10-26T18:32:52.177Z,11.10
2023-10-26T18:37:56.495Z,13.20
2023-10-26T18:42:59.429Z,13.30
2023-10-26T18:48:04.633Z,10.50
2023-10-26T18:53:09.255Z,9.80
2023-10-26T18:58:12.112Z,10.90
2023-10-26T19:03:16.996Z,11.10
2023-10-26T19:08:20.240Z,10.20
2023-10-26T19:13:23.361Z,10.60
2023-10-26T19:18:26.476Z,9.50
2023-10-26T19:23:29.499Z,9.60
2023-10-26T19:28:33.781Z,9.40
2023-10-26T19:33:36.678Z,9.90
2023-10-26T19:38:39.690Z,9.90
2023-10-26T19:43:42.793Z,9.30
2023-10-26T19:48:45.803Z,9.50
2023-10-26T19:53:48.864Z,9.70
2023-10-26T19:58:51.769Z,9.20
2023-10-26T20:03:54.692Z,9.60
2023-10-26T20:08:57.659Z,14.90
2023-10-26T20:14:03.903Z,15.80
2023-10-26T20:19:06.937Z,15.00
2023-10-26T20:24:10.278Z,15.20
2023-10-26T20:29:14.981Z,14.40
2023-10-26T20:34:21.069Z,14.90
2023-10-26T20:39:24.323Z,16.90
2023-10-26T20:44:27.335Z,16.50
2023-10-26T20:49:30.402Z,15.60
2023-10-26T20:54:33.334Z,15.20
2023-10-26T20:59:40.240Z,15.10
2023-10-26T21:04:43.254Z,16.30
2023-10-26T21:09:47.666Z,14.90
2023-10-26T21:14:54.744Z,14.50
2023-10-26T21:19:57.761Z,15.40
2023-10-26T21:25:02.111Z,15.50
2023-10-26T21:30:06.922Z,14.80
2023-10-26T21:35:10.394Z,14.40
2023-10-26T21:40:13.352Z,14.30
2023-10-26T21:45:16.409Z,12.90
2023-10-26T21:50:19.284Z,12.50
2023-10-26T21:55:22.198Z,12.80
2023-10-26T22:00:29.478Z,12.80
2023-10-26T22:05:32.751Z,12.60
2023-10-26T22:10:35.779Z,13.00
2023-10-26T22:15:38.769Z,12.90
2023-10-26T22:20:41.705Z,13.90
2023-10-26T22:25:44.615Z,14.50
2023-10-26T22:30:47.560Z,14.30
2023-10-26T22:35:50.586Z,14.50
2023-10-26T22:40:55.016Z,14.40
2023-10-26T22:45:58.133Z,15.80
2023-10-26T22:51:01.105Z,14.30
2023-10-26T22:56:04.525Z,16.30
2023-10-26T23:01:07.469Z,16.80
2023-10-26T23:06:10.388Z,16.50
2023-10-26T23:11:13.420Z,17.00
2023-10-26T23:16:17.134Z,15.50
2023-10-26T23:21:20.202Z,15.90
2023-10-26T23:26:23.206Z,15.10
2023-10-26T23:31:26.641Z,14.50
2023-10-26T23:36:29.600Z,15.30
2023-10-26T23:41:32.455Z,15.20
2023-10-26T23:46:35.384Z,15.60
2023-10-26T23:51:38.330Z,15.10
2023-10-26T23:56:41.201Z,14.40
